sensor_id;sensor_type;location;lat;lon;timestamp;pressure;altitude;pressure_sealevel;temperature;humidity
53659;BME280;41524;35.624;139.698;2022-10-31T00:00:15;102378.00;;;18.87;30.84
53659;BME280;41524;35.624;139.698;2022-10-31T00:05:15;102377.00;;;18.46;31.06
53659;BME280;41524;35.624;139.698;2022-10-31T00:10:11;102378.00;;;18.83;30.84
53659;BME280;41524;35.624;139.698;2022-10-31T00:15:11;102375.00;;;18.95;30.49
53659;BME280;41524;35.624;139.698;2022-10-31T00:20:15;102363.00;;;18.44;31.03
53659;BME280;41524;35.624;139.698;2022-10-31T00:25:11;102359.00;;;17.83;31.94
53659;BME280;41524;35.624;139.698;2022-10-31T00:30:17;102355.00;;;18.22;31.67
53659;BME280;41524;35.624;139.698;2022-10-31T00:35:11;102362.00;;;18.73;31.33
53659;BME280;41524;35.624;139.698;2022-10-31T00:40:17;102358.00;;;17.93;31.07
53659;BME280;41524;35.624;139.698;2022-10-31T00:45:11;102355.00;;;19.35;30.20
53659;BME280;41524;35.624;139.698;2022-10-31T00:50:19;102348.00;;;18.84;29.94
53659;BME280;41524;35.624;139.698;2022-10-31T00:55:15;102343.00;;;14.59;33.87
53659;BME280;41524;35.624;139.698;2022-10-31T01:00:15;102344.00;;;15.75;34.22
53659;BME280;41524;35.624;139.698;2022-10-31T01:05:10;102345.00;;;15.93;34.30
53659;BME280;41524;35.624;139.698;2022-10-31T01:10:12;102342.00;;;16.95;32.92
53659;BME280;41524;35.624;139.698;2022-10-31T01:20:13;102323.00;;;20.16;29.01
53659;BME280;41524;35.624;139.698;2022-10-31T01:25:15;102322.00;;;20.16;31.03
53659;BME280;41524;35.624;139.698;2022-10-31T01:30:12;102325.00;;;19.07;30.78
53659;BME280;41524;35.624;139.698;2022-10-31T01:35:15;102325.00;;;16.74;32.34
53659;BME280;41524;35.624;139.698;2022-10-31T01:40:16;102321.00;;;17.37;33.32
53659;BME280;41524;35.624;139.698;2022-10-31T01:45:14;102316.00;;;18.80;32.74
53659;BME280;41524;35.624;139.698;2022-10-31T01:50:21;102321.00;;;19.00;31.44
53659;BME280;41524;35.624;139.698;2022-10-31T01:55:16;102320.00;;;17.02;33.45
53659;BME280;41524;35.624;139.698;2022-10-31T02:00:17;102313.00;;;17.23;31.89
53659;BME280;41524;35.624;139.698;2022-10-31T02:05:14;102305.00;;;17.65;32.72
53659;BME280;41524;35.624;139.698;2022-10-31T02:10:10;102292.00;;;18.65;31.91
53659;BME280;41524;35.624;139.698;2022-10-31T02:15:15;102278.00;;;20.71;29.08
53659;BME280;41524;35.624;139.698;2022-10-31T02:20:16;102271.00;;;19.98;29.74
53659;BME280;41524;35.624;139.698;2022-10-31T02:25:25;102267.00;;;18.39;31.25
53659;BME280;41524;35.624;139.698;2022-10-31T02:30:15;102262.00;;;19.28;29.94
53659;BME280;41524;35.624;139.698;2022-10-31T02:35:16;102257.00;;;18.24;31.04
53659;BME280;41524;35.624;139.698;2022-10-31T02:40:21;102253.00;;;16.44;32.45
53659;BME280;41524;35.624;139.698;2022-10-31T02:45:29;102251.00;;;19.74;29.29
53659;BME280;41524;35.624;139.698;2022-10-31T02:50:19;102247.00;;;18.87;30.70
53659;BME280;41524;35.624;139.698;2022-10-31T03:00:15;102239.00;;;20.58;28.13
53659;BME280;41524;35.624;139.698;2022-10-31T03:05:24;102240.00;;;18.35;30.98
53659;BME280;41524;35.624;139.698;2022-10-31T03:10:17;102231.00;;;19.40;29.64
53659;BME280;41524;35.624;139.698;2022-10-31T03:15:17;102232.00;;;18.91;30.34
53659;BME280;41524;35.624;139.698;2022-10-31T03:20:21;102227.00;;;20.43;28.67
53659;BME280;41524;35.624;139.698;2022-10-31T03:25:10;102232.00;;;21.11;26.58
53659;BME280;41524;35.624;139.698;2022-10-31T03:30:17;102227.00;;;21.03;26.17
53659;BME280;41524;35.624;139.698;2022-10-31T03:35:14;102217.00;;;21.95;26.04
53659;BME280;41524;35.624;139.698;2022-10-31T03:40:17;102206.00;;;22.29;25.79
53659;BME280;41524;35.624;139.698;2022-10-31T03:45:16;102209.00;;;21.19;26.14
53659;BME280;41524;35.624;139.698;2022-10-31T03:50:14;102207.00;;;21.50;26.16
53659;BME280;41524;35.624;139.698;2022-10-31T03:55:15;102205.00;;;21.44;25.54
53659;BME280;41524;35.624;139.698;2022-10-31T04:00:18;102200.00;;;17.43;30.51
53659;BME280;41524;35.624;139.698;2022-10-31T04:05:11;102185.00;;;21.28;26.13
53659;BME280;41524;35.624;139.698;2022-10-31T04:10:17;102180.00;;;20.42;27.52
53659;BME280;41524;35.624;139.698;2022-10-31T04:15:11;102179.00;;;22.39;25.05
53659;BME280;41524;35.624;139.698;2022-10-31T04:20:17;102177.00;;;21.73;26.28
53659;BME280;41524;35.624;139.698;2022-10-31T04:25:15;102174.00;;;20.82;27.41
53659;BME280;41524;35.624;139.698;2022-10-31T04:30:11;102175.00;;;16.48;30.54
53659;BME280;41524;35.624;139.698;2022-10-31T04:35:11;102177.00;;;16.31;31.61
53659;BME280;41524;35.624;139.698;2022-10-31T04:40:11;102165.00;;;21.34;26.49
53659;BME280;41524;35.624;139.698;2022-10-31T04:45:12;102157.00;;;22.06;25.96
53659;BME280;41524;35.624;139.698;2022-10-31T04:50:11;102164.00;;;20.20;27.27
53659;BME280;41524;35.624;139.698;2022-10-31T04:55:16;102167.00;;;18.36;29.43
53659;BME280;41524;35.624;139.698;2022-10-31T05:00:14;102165.00;;;21.29;26.48
53659;BME280;41524;35.624;139.698;2022-10-31T05:05:10;102175.00;;;18.39;29.24
53659;BME280;41524;35.624;139.698;2022-10-31T05:10:11;102171.00;;;18.05;30.62
53659;BME280;41524;35.624;139.698;2022-10-31T05:15:11;102168.00;;;16.67;33.10
53659;BME280;41524;35.624;139.698;2022-10-31T05:20:11;102154.00;;;19.81;29.80
53659;BME280;41524;35.624;139.698;2022-10-31T05:25:11;102159.00;;;18.96;29.77
53659;BME280;41524;35.624;139.698;2022-10-31T05:30:13;102160.00;;;17.41;33.20
53659;BME280;41524;35.624;139.698;2022-10-31T05:35:17;102161.00;;;17.61;32.39
53659;BME280;41524;35.624;139.698;2022-10-31T05:40:13;102161.00;;;17.44;32.72
53659;BME280;41524;35.624;139.698;2022-10-31T05:45:14;102154.00;;;18.29;32.22
53659;BME280;41524;35.624;139.698;2022-10-31T05:50:11;102167.00;;;15.99;34.74
53659;BME280;41524;35.624;139.698;2022-10-31T05:55:10;102171.00;;;16.80;33.83
53659;BME280;41524;35.624;139.698;2022-10-31T06:00:14;102176.00;;;16.87;33.10
53659;BME280;41524;35.624;139.698;2022-10-31T06:05:12;102177.00;;;16.93;32.96
53659;BME280;41524;35.624;139.698;2022-10-31T06:10:11;102172.00;;;25.32;24.09
53659;BME280;41524;35.624;139.698;2022-10-31T06:15:12;102162.00;;;28.99;19.49
53659;BME280;41524;35.624;139.698;2022-10-31T06:20:11;102171.00;;;27.52;20.04
53659;BME280;41524;35.624;139.698;2022-10-31T06:25:12;102169.00;;;28.82;19.67
53659;BME280;41524;35.624;139.698;2022-10-31T06:30:12;102176.00;;;31.79;16.47
53659;BME280;41524;35.624;139.698;2022-10-31T06:35:11;102188.00;;;25.60;21.63
53659;BME280;41524;35.624;139.698;2022-10-31T06:40:15;102193.00;;;24.25;23.19
53659;BME280;41524;35.624;139.698;2022-10-31T06:45:10;102197.00;;;17.96;30.33
53659;BME280;41524;35.624;139.698;2022-10-31T06:50:10;102210.00;;;16.61;33.73
53659;BME280;41524;35.624;139.698;2022-10-31T06:55:15;102220.00;;;17.24;33.30
53659;BME280;41524;35.624;139.698;2022-10-31T07:00:17;102229.00;;;17.61;32.72
53659;BME280;41524;35.624;139.698;2022-10-31T07:05:10;102237.00;;;17.57;33.39
53659;BME280;41524;35.624;139.698;2022-10-31T07:10:15;102243.00;;;17.47;33.21
53659;BME280;41524;35.624;139.698;2022-10-31T07:15:11;102246.00;;;15.69;35.71
53659;BME280;41524;35.624;139.698;2022-10-31T07:20:11;102248.00;;;16.48;33.99
53659;BME280;41524;35.624;139.698;2022-10-31T07:25:11;102254.00;;;15.96;34.26
53659;BME280;41524;35.624;139.698;2022-10-31T07:30:12;102262.00;;;15.20;35.65
53659;BME280;41524;35.624;139.698;2022-10-31T07:35:13;102270.00;;;14.97;37.11
53659;BME280;41524;35.624;139.698;2022-10-31T07:40:12;102282.00;;;16.35;36.32
53659;BME280;41524;35.624;139.698;2022-10-31T07:45:12;102290.00;;;17.80;34.70
53659;BME280;41524;35.624;139.698;2022-10-31T07:50:12;102298.00;;;14.34;40.84
53659;BME280;41524;35.624;139.698;2022-10-31T07:55:11;102301.00;;;16.06;38.48
53659;BME280;41524;35.624;139.698;2022-10-31T08:00:12;102310.00;;;14.01;42.28
53659;BME280;41524;35.624;139.698;2022-10-31T08:05:15;102315.00;;;15.53;40.56
53659;BME280;41524;35.624;139.698;2022-10-31T08:10:15;102320.00;;;14.11;42.73
53659;BME280;41524;35.624;139.698;2022-10-31T08:15:11;102318.00;;;15.33;41.23
53659;BME280;41524;35.624;139.698;2022-10-31T08:20:11;102332.00;;;13.78;43.61
53659;BME280;41524;35.624;139.698;2022-10-31T08:25:11;102339.00;;;14.42;43.13
53659;BME280;41524;35.624;139.698;2022-10-31T08:30:12;102346.00;;;13.67;45.26
53659;BME280;41524;35.624;139.698;2022-10-31T08:35:15;102364.00;;;13.87;44.65
53659;BME280;41524;35.624;139.698;2022-10-31T08:40:12;102369.00;;;13.83;44.13
53659;BME280;41524;35.624;139.698;2022-10-31T08:45:11;102377.00;;;15.52;44.42
53659;BME280;41524;35.624;139.698;2022-10-31T08:50:15;102386.00;;;14.60;43.64
53659;BME280;41524;35.624;139.698;2022-10-31T08:55:15;102385.00;;;15.75;41.85
53659;BME280;41524;35.624;139.698;2022-10-31T09:00:11;102393.00;;;14.40;43.66
53659;BME280;41524;35.624;139.698;2022-10-31T09:05:10;102403.00;;;14.78;44.21
53659;BME280;41524;35.624;139.698;2022-10-31T09:10:11;102408.00;;;14.53;44.75
53659;BME280;41524;35.624;139.698;2022-10-31T09:15:18;102411.00;;;15.23;43.05
53659;BME280;41524;35.624;139.698;2022-10-31T09:20:11;102416.00;;;15.02;43.50
53659;BME280;41524;35.624;139.698;2022-10-31T09:25:15;102420.00;;;14.88;43.56
53659;BME280;41524;35.624;139.698;2022-10-31T09:30:16;102420.00;;;13.52;46.19
53659;BME280;41524;35.624;139.698;2022-10-31T09:35:10;102425.00;;;13.75;45.32
53659;BME280;41524;35.624;139.698;2022-10-31T09:40:11;102416.00;;;13.17;48.50
53659;BME280;41524;35.624;139.698;2022-10-31T09:45:20;102412.00;;;13.34;49.27
53659;BME280;41524;35.624;139.698;2022-10-31T09:50:18;102422.00;;;14.98;46.93
53659;BME280;41524;35.624;139.698;2022-10-31T09:55:16;102436.00;;;15.15;45.60
53659;BME280;41524;35.624;139.698;2022-10-31T10:00:17;102436.00;;;16.37;42.48
53659;BME280;41524;35.624;139.698;2022-10-31T10:05:21;102436.00;;;16.26;42.18
53659;BME280;41524;35.624;139.698;2022-10-31T10:10:16;102441.00;;;16.62;41.71
53659;BME280;41524;35.624;139.698;2022-10-31T10:15:34;102443.00;;;15.58;43.07
53659;BME280;41524;35.624;139.698;2022-10-31T10:20:23;102449.00;;;13.10;47.36
53659;BME280;41524;35.624;139.698;2022-10-31T10:25:28;102449.00;;;15.23;44.67
53659;BME280;41524;35.624;139.698;2022-10-31T10:30:16;102447.00;;;14.98;45.25
53659;BME280;41524;35.624;139.698;2022-10-31T10:35:19;102448.00;;;14.99;45.12
53659;BME280;41524;35.624;139.698;2022-10-31T10:40:17;102451.00;;;15.36;43.72
53659;BME280;41524;35.624;139.698;2022-10-31T10:45:16;102455.00;;;13.35;48.17
53659;BME280;41524;35.624;139.698;2022-10-31T10:50:19;102454.00;;;12.97;49.14
53659;BME280;41524;35.624;139.698;2022-10-31T10:55:15;102458.00;;;14.02;46.91
53659;BME280;41524;35.624;139.698;2022-10-31T11:00:19;102459.00;;;13.85;46.88
53659;BME280;41524;35.624;139.698;2022-10-31T11:05:20;102461.00;;;14.77;45.61
53659;BME280;41524;35.624;139.698;2022-10-31T11:10:18;102463.00;;;15.27;45.04
53659;BME280;41524;35.624;139.698;2022-10-31T11:15:20;102458.00;;;14.81;45.83
53659;BME280;41524;35.624;139.698;2022-10-31T11:20:35;102463.00;;;14.41;46.28
53659;BME280;41524;35.624;139.698;2022-10-31T11:25:27;102467.00;;;14.09;46.02
53659;BME280;41524;35.624;139.698;2022-10-31T11:30:11;102468.00;;;12.99;48.03
53659;BME280;41524;35.624;139.698;2022-10-31T11:35:13;102456.00;;;13.63;46.85
53659;BME280;41524;35.624;139.698;2022-10-31T11:40:19;102452.00;;;13.67;47.31
53659;BME280;41524;35.624;139.698;2022-10-31T11:45:16;102449.00;;;15.55;44.30
53659;BME280;41524;35.624;139.698;2022-10-31T11:50:15;102443.00;;;14.28;45.64
53659;BME280;41524;35.624;139.698;2022-10-31T11:55:29;102444.00;;;15.11;44.70
53659;BME280;41524;35.624;139.698;2022-10-31T12:00:23;102449.00;;;14.20;46.20
53659;BME280;41524;35.624;139.698;2022-10-31T12:05:21;102452.00;;;13.73;47.00
53659;BME280;41524;35.624;139.698;2022-10-31T12:10:19;102455.00;;;13.77;46.87
53659;BME280;41524;35.624;139.698;2022-10-31T12:15:30;102457.00;;;14.20;45.74
53659;BME280;41524;35.624;139.698;2022-10-31T12:20:20;102454.00;;;14.80;44.43
53659;BME280;41524;35.624;139.698;2022-10-31T12:25:24;102441.00;;;13.36;47.16
53659;BME280;41524;35.624;139.698;2022-10-31T12:30:20;102448.00;;;12.95;48.48
53659;BME280;41524;35.624;139.698;2022-10-31T12:35:26;102448.00;;;14.64;45.98
53659;BME280;41524;35.624;139.698;2022-10-31T12:40:33;102447.00;;;14.15;46.13
53659;BME280;41524;35.624;139.698;2022-10-31T12:45:26;102444.00;;;13.94;45.98
53659;BME280;41524;35.624;139.698;2022-10-31T12:50:25;102432.00;;;14.18;46.65
53659;BME280;41524;35.624;139.698;2022-10-31T12:55:26;102431.00;;;14.25;47.04
53659;BME280;41524;35.624;139.698;2022-10-31T13:00:18;102426.00;;;14.86;45.75
53659;BME280;41524;35.624;139.698;2022-10-31T13:05:24;102428.00;;;14.19;46.48
53659;BME280;41524;35.624;139.698;2022-10-31T13:10:19;102433.00;;;14.60;45.94
53659;BME280;41524;35.624;139.698;2022-10-31T13:15:17;102434.00;;;14.43;46.32
53659;BME280;41524;35.624;139.698;2022-10-31T13:20:21;102428.00;;;14.76;46.08
53659;BME280;41524;35.624;139.698;2022-10-31T13:25:17;102421.00;;;14.24;47.07
53659;BME280;41524;35.624;139.698;2022-10-31T13:30:22;102410.00;;;14.44;46.45
53659;BME280;41524;35.624;139.698;2022-10-31T13:35:18;102413.00;;;15.14;45.70
53659;BME280;41524;35.624;139.698;2022-10-31T13:40:24;102413.00;;;14.68;46.84
53659;BME280;41524;35.624;139.698;2022-10-31T13:45:15;102415.00;;;14.34;47.57
53659;BME280;41524;35.624;139.698;2022-10-31T13:50:26;102418.00;;;14.61;47.37
53659;BME280;41524;35.624;139.698;2022-10-31T13:55:40;102408.00;;;14.43;47.78
53659;BME280;41524;35.624;139.698;2022-10-31T14:00:30;102410.00;;;14.78;47.62
53659;BME280;41524;35.624;139.698;2022-10-31T14:05:22;102414.00;;;14.74;47.62
53659;BME280;41524;35.624;139.698;2022-10-31T14:10:24;102413.00;;;14.92;47.13
53659;BME280;41524;35.624;139.698;2022-10-31T14:15:16;102405.00;;;14.05;49.28
53659;BME280;41524;35.624;139.698;2022-10-31T14:20:38;102409.00;;;14.24;48.64
53659;BME280;41524;35.624;139.698;2022-10-31T14:25:34;102415.00;;;15.43;47.08
53659;BME280;41524;35.624;139.698;2022-10-31T14:30:19;102414.00;;;14.33;48.70
53659;BME280;41524;35.624;139.698;2022-10-31T14:40:25;102412.00;;;13.53;50.03
53659;BME280;41524;35.624;139.698;2022-10-31T14:45:25;102412.00;;;14.21;48.89
53659;BME280;41524;35.624;139.698;2022-10-31T14:50:24;102409.00;;;14.08;48.78
53659;BME280;41524;35.624;139.698;2022-10-31T14:55:16;102409.00;;;13.73;49.48
53659;BME280;41524;35.624;139.698;2022-10-31T15:00:18;102402.00;;;13.23;50.23
53659;BME280;41524;35.624;139.698;2022-10-31T15:05:12;102397.00;;;14.12;48.37
53659;BME280;41524;35.624;139.698;2022-10-31T15:10:24;102390.00;;;13.64;48.70
53659;BME280;41524;35.624;139.698;2022-10-31T15:15:18;102383.00;;;13.80;48.23
53659;BME280;41524;35.624;139.698;2022-10-31T15:20:18;102372.00;;;13.63;47.90
53659;BME280;41524;35.624;139.698;2022-10-31T15:25:18;102356.00;;;13.42;48.04
53659;BME280;41524;35.624;139.698;2022-10-31T15:30:21;102357.00;;;13.37;47.68
53659;BME280;41524;35.624;139.698;2022-10-31T15:35:22;102371.00;;;12.89;48.24
53659;BME280;41524;35.624;139.698;2022-10-31T15:40:17;102380.00;;;13.03;47.80
53659;BME280;41524;35.624;139.698;2022-10-31T15:45:19;102385.00;;;13.47;47.33
53659;BME280;41524;35.624;139.698;2022-10-31T15:50:27;102379.00;;;13.49;47.37
53659;BME280;41524;35.624;139.698;2022-10-31T15:55:18;102380.00;;;13.34;47.85
53659;BME280;41524;35.624;139.698;2022-10-31T16:00:27;102384.00;;;12.85;48.24
53659;BME280;41524;35.624;139.698;2022-10-31T16:05:18;102391.00;;;13.45;47.17
53659;BME280;41524;35.624;139.698;2022-10-31T16:10:24;102341.00;;;13.53;46.72
53659;BME280;41524;35.624;139.698;2022-10-31T16:15:15;102337.00;;;13.92;46.37
53659;BME280;41524;35.624;139.698;2022-10-31T16:20:21;102353.00;;;13.23;46.94
53659;BME280;41524;35.624;139.698;2022-10-31T16:25:13;102402.00;;;12.22;48.46
53659;BME280;41524;35.624;139.698;2022-10-31T16:30:35;102401.00;;;12.99;47.26
53659;BME280;41524;35.624;139.698;2022-10-31T16:35:32;102416.00;;;13.15;47.01
53659;BME280;41524;35.624;139.698;2022-10-31T16:40:11;102375.00;;;12.33;48.37
53659;BME280;41524;35.624;139.698;2022-10-31T16:45:22;102373.00;;;13.05;46.66
53659;BME280;41524;35.624;139.698;2022-10-31T16:50:15;102375.00;;;12.23;47.90
53659;BME280;41524;35.624;139.698;2022-10-31T16:55:13;102384.00;;;12.67;47.14
53659;BME280;41524;35.624;139.698;2022-10-31T17:00:16;102390.00;;;12.58;46.90
53659;BME280;41524;35.624;139.698;2022-10-31T17:05:15;102397.00;;;13.61;45.63
53659;BME280;41524;35.624;139.698;2022-10-31T17:10:12;102376.00;;;12.04;47.74
53659;BME280;41524;35.624;139.698;2022-10-31T17:15:18;102375.00;;;12.98;46.43
53659;BME280;41524;35.624;139.698;2022-10-31T17:20:19;102364.00;;;13.02;46.30
53659;BME280;41524;35.624;139.698;2022-10-31T17:25:14;102373.00;;;12.62;46.84
53659;BME280;41524;35.624;139.698;2022-10-31T17:30:12;102354.00;;;12.64;46.69
53659;BME280;41524;35.624;139.698;2022-10-31T17:35:17;102365.00;;;12.74;46.45
53659;BME280;41524;35.624;139.698;2022-10-31T17:40:13;102354.00;;;12.75;46.04
53659;BME280;41524;35.624;139.698;2022-10-31T17:45:11;102346.00;;;13.17;45.54
53659;BME280;41524;35.624;139.698;2022-10-31T17:50:13;102338.00;;;12.49;46.84
53659;BME280;41524;35.624;139.698;2022-10-31T17:55:13;102321.00;;;12.89;45.98
53659;BME280;41524;35.624;139.698;2022-10-31T18:00:13;102334.00;;;12.86;46.17
53659;BME280;41524;35.624;139.698;2022-10-31T18:05:11;102343.00;;;13.04;45.84
53659;BME280;41524;35.624;139.698;2022-10-31T18:10:17;102339.00;;;12.95;45.95
53659;BME280;41524;35.624;139.698;2022-10-31T18:15:11;102317.00;;;12.95;46.08
53659;BME280;41524;35.624;139.698;2022-10-31T18:20:11;102314.00;;;13.49;44.89
53659;BME280;41524;35.624;139.698;2022-10-31T18:25:11;102309.00;;;13.16;45.36
53659;BME280;41524;35.624;139.698;2022-10-31T18:30:11;102304.00;;;12.34;46.58
53659;BME280;41524;35.624;139.698;2022-10-31T18:35:11;102321.00;;;13.05;45.57
53659;BME280;41524;35.624;139.698;2022-10-31T18:40:11;102336.00;;;12.58;46.72
53659;BME280;41524;35.624;139.698;2022-10-31T18:45:11;102348.00;;;13.05;45.82
53659;BME280;41524;35.624;139.698;2022-10-31T18:50:10;102341.00;;;12.80;46.12
53659;BME280;41524;35.624;139.698;2022-10-31T18:55:10;102332.00;;;12.82;46.29
53659;BME280;41524;35.624;139.698;2022-10-31T19:00:11;102324.00;;;13.05;45.72
53659;BME280;41524;35.624;139.698;2022-10-31T19:05:15;102330.00;;;12.74;46.59
53659;BME280;41524;35.624;139.698;2022-10-31T19:10:11;102335.00;;;12.86;46.42
53659;BME280;41524;35.624;139.698;2022-10-31T19:15:11;102341.00;;;12.73;46.56
53659;BME280;41524;35.624;139.698;2022-10-31T19:20:13;102348.00;;;12.12;47.91
53659;BME280;41524;35.624;139.698;2022-10-31T19:25:12;102347.00;;;12.28;47.79
53659;BME280;41524;35.624;139.698;2022-10-31T19:30:12;102335.00;;;11.89;48.59
53659;BME280;41524;35.624;139.698;2022-10-31T19:35:16;102326.00;;;12.46;47.77
53659;BME280;41524;35.624;139.698;2022-10-31T19:40:12;102346.00;;;12.14;48.08
53659;BME280;41524;35.624;139.698;2022-10-31T19:45:11;102346.00;;;12.75;47.04
53659;BME280;41524;35.624;139.698;2022-10-31T19:50:10;102333.00;;;12.29;47.82
53659;BME280;41524;35.624;139.698;2022-10-31T19:55:11;102322.00;;;12.88;46.87
53659;BME280;41524;35.624;139.698;2022-10-31T20:00:12;102298.00;;;12.96;46.51
53659;BME280;41524;35.624;139.698;2022-10-31T20:05:16;102277.00;;;12.47;47.21
53659;BME280;41524;35.624;139.698;2022-10-31T20:10:10;102284.00;;;13.02;46.28
53659;BME280;41524;35.624;139.698;2022-10-31T20:15:11;102296.00;;;13.52;45.23
53659;BME280;41524;35.624;139.698;2022-10-31T20:20:11;102291.00;;;12.90;45.88
53659;BME280;41524;35.624;139.698;2022-10-31T20:25:16;102290.00;;;13.25;45.69
53659;BME280;41524;35.624;139.698;2022-10-31T20:30:12;102294.00;;;13.14;45.56
53659;BME280;41524;35.624;139.698;2022-10-31T20:35:11;102299.00;;;13.16;45.46
53659;BME280;41524;35.624;139.698;2022-10-31T20:40:12;102316.00;;;13.75;44.77
53659;BME280;41524;35.624;139.698;2022-10-31T20:45:11;102315.00;;;12.98;45.80
53659;BME280;41524;35.624;139.698;2022-10-31T20:50:11;102306.00;;;13.10;45.94
53659;BME280;41524;35.624;139.698;2022-10-31T20:55:10;102295.00;;;13.20;45.55
53659;BME280;41524;35.624;139.698;2022-10-31T21:00:11;102289.00;;;13.46;45.11
53659;BME280;41524;35.624;139.698;2022-10-31T21:05:11;102283.00;;;13.65;44.65
53659;BME280;41524;35.624;139.698;2022-10-31T21:10:10;102273.00;;;13.16;45.45
53659;BME280;41524;35.624;139.698;2022-10-31T21:15:12;102271.00;;;13.86;44.20
53659;BME280;41524;35.624;139.698;2022-10-31T21:20:12;102265.00;;;12.71;46.07
53659;BME280;41524;35.624;139.698;2022-10-31T21:25:12;102245.00;;;13.80;44.31
53659;BME280;41524;35.624;139.698;2022-10-31T21:30:12;102273.00;;;12.92;45.77
53659;BME280;41524;35.624;139.698;2022-10-31T21:35:16;102277.00;;;13.86;44.19
53659;BME280;41524;35.624;139.698;2022-10-31T21:40:11;102282.00;;;13.31;44.79
53659;BME280;41524;35.624;139.698;2022-10-31T21:45:12;102290.00;;;12.87;45.61
53659;BME280;41524;35.624;139.698;2022-10-31T21:50:12;102292.00;;;13.14;45.35
53659;BME280;41524;35.624;139.698;2022-10-31T21:55:11;102314.00;;;13.04;45.96
53659;BME280;41524;35.624;139.698;2022-10-31T22:00:16;102321.00;;;12.58;47.34
53659;BME280;41524;35.624;139.698;2022-10-31T22:05:10;102325.00;;;12.80;47.36
53659;BME280;41524;35.624;139.698;2022-10-31T22:10:12;102338.00;;;11.57;49.30
53659;BME280;41524;35.624;139.698;2022-10-31T22:15:11;102358.00;;;11.98;48.53
53659;BME280;41524;35.624;139.698;2022-10-31T22:20:11;102353.00;;;13.00;47.61
53659;BME280;41524;35.624;139.698;2022-10-31T22:25:11;102348.00;;;12.82;47.60
53659;BME280;41524;35.624;139.698;2022-10-31T22:30:11;102342.00;;;12.24;48.48
53659;BME280;41524;35.624;139.698;2022-10-31T22:35:16;102326.00;;;13.27;46.66
53659;BME280;41524;35.624;139.698;2022-10-31T22:40:12;102329.00;;;13.11;47.71
53659;BME280;41524;35.624;139.698;2022-10-31T22:45:20;102328.00;;;12.88;49.50
53659;BME280;41524;35.624;139.698;2022-10-31T22:50:10;102330.00;;;13.77;47.52
53659;BME280;41524;35.624;139.698;2022-10-31T22:55:12;102348.00;;;13.76;50.80
53659;BME280;41524;35.624;139.698;2022-10-31T23:00:13;102357.00;;;12.73;50.65
53659;BME280;41524;35.624;139.698;2022-10-31T23:05:10;102340.00;;;12.84;51.84
53659;BME280;41524;35.624;139.698;2022-10-31T23:10:11;102323.00;;;13.44;50.93
53659;BME280;41524;35.624;139.698;2022-10-31T23:15:11;102317.00;;;13.46;48.47
53659;BME280;41524;35.624;139.698;2022-10-31T23:20:11;102298.00;;;13.19;50.57
53659;BME280;41524;35.624;139.698;2022-10-31T23:25:16;102295.00;;;13.44;49.39
53659;BME280;41524;35.624;139.698;2022-10-31T23:30:11;102310.00;;;12.24;49.55
53659;BME280;41524;35.624;139.698;2022-10-31T23:35:15;102315.00;;;13.02;50.58
53659;BME280;41524;35.624;139.698;2022-10-31T23:40:12;102311.00;;;13.29;49.12
53659;BME280;41524;35.624;139.698;2022-10-31T23:45:10;102301.00;;;12.77;49.55
53659;BME280;41524;35.624;139.698;2022-10-31T23:50:13;102285.00;;;12.95;51.49
53659;BME280;41524;35.624;139.698;2022-10-31T23:55:11;102279.00;;;13.48;48.75
